Time;durP1;ratioP1;P1;durP2;ratioP2;P2;SDS_P1;SDS_P2;PMS_P1;PMS_P2;Temp;Humidity;BMP_temperature;BMP_pressure;BME280_temperature;BME280_humidity;BME280_pressure;Samples;Min_cycle;Max_cycle;Signal;HPM_P1;HPM_P2
2020/12/24 06:02:24;;;;;;;5.13;2.10;;;8.80;97.30;;;;;;5482481;23;20503;-73
2020/12/24 06:04:51;;;;;;;4.23;1.40;;;8.70;97.30;;;;;;4934454;29;20522;-72
2020/12/24 06:07:20;;;;;;;1.80;1.40;;;8.70;97.30;;;;;;4936768;29;20423;-72
2020/12/24 06:10:07;;;;;;;4.73;1.60;;;8.70;97.30;;;;;;4937062;29;20407;-72
2020/12/24 06:12:33;;;;;;;3.57;1.83;;;8.70;97.30;;;;;;4908685;29;20953;-72
2020/12/24 06:15:00;;;;;;;5.30;1.90;;;8.70;97.30;;;;;;4917472;29;20425;-72
2020/12/24 06:17:30;;;;;;;4.90;1.90;;;8.70;97.30;;;;;;4918043;29;20201;-73
2020/12/24 06:19:57;;;;;;;6.50;1.80;;;8.70;97.30;;;;;;4918227;29;20547;-73
2020/12/24 06:22:25;;;;;;;5.67;1.70;;;8.70;97.30;;;;;;4916489;29;20520;-73
2020/12/24 06:24:53;;;;;;;7.80;2.10;;;8.60;97.30;;;;;;4917440;29;20476;-74
2020/12/24 06:27:35;;;;;;;3.07;1.50;;;8.50;97.30;;;;;;4918192;29;20436;-74
2020/12/24 06:30:23;;;;;;;6.00;1.80;;;8.50;97.30;;;;;;4918124;29;20488;-75
2020/12/24 06:32:50;;;;;;;8.50;1.50;;;8.40;97.30;;;;;;4911097;29;20461;-75
2020/12/24 06:35:33;;;;;;;3.30;1.73;;;8.50;97.30;;;;;;4917312;29;20435;-73
2020/12/24 06:37:59;;;;;;;9.83;2.00;;;8.50;97.30;;;;;;4918426;29;20416;-74
2020/12/24 06:40:32;;;;;;;6.37;1.90;;;8.50;97.30;;;;;;4899147;29;20440;-73
2020/12/24 06:42:59;;;;;;;4.23;1.90;;;8.40;97.30;;;;;;4898483;29;20441;-74
2020/12/24 06:45:28;;;;;;;12.23;2.13;;;8.40;97.30;;;;;;4899166;29;20509;-74
2020/12/24 06:48:15;;;;;;;3.00;1.80;;;8.40;97.30;;;;;;4898918;29;20421;-74
2020/12/24 06:51:02;;;;;;;4.60;1.73;;;8.40;97.30;;;;;;4900064;29;20508;-74
2020/12/24 06:53:32;;;;;;;3.77;1.50;;;8.30;97.30;;;;;;4898361;29;20444;-74
2020/12/24 06:56:16;;;;;;;3.37;1.63;;;8.30;97.30;;;;;;4899939;29;20418;-74
2020/12/24 06:58:54;;;;;;;10.87;2.33;;;8.30;97.30;;;;;;4910382;29;20496;-74
2020/12/24 07:01:26;;;;;;;8.30;2.07;;;8.20;97.30;;;;;;4917172;29;20485;-73
2020/12/24 07:03:54;;;;;;;5.90;1.70;;;8.20;97.30;;;;;;4917291;29;20421;-72
2020/12/24 07:06:42;;;;;;;5.90;2.00;;;8.20;97.30;;;;;;4917538;29;20794;-73
2020/12/24 07:09:09;;;;;;;6.40;2.37;;;8.30;97.30;;;;;;4916603;29;20427;-74
2020/12/24 07:11:52;;;;;;;3.87;1.57;;;8.20;97.30;;;;;;4917618;29;20954;-72
2020/12/24 07:14:28;;;;;;;8.30;2.30;;;8.20;97.30;;;;;;4909895;29;20436;-74
2020/12/24 07:16:55;;;;;;;5.97;1.87;;;8.20;97.30;;;;;;4915208;29;20421;-73
2020/12/24 07:19:22;;;;;;;6.40;1.80;;;8.20;97.30;;;;;;4917163;29;20531;-73
2020/12/24 07:21:53;;;;;;;4.93;1.60;;;8.20;97.30;;;;;;4917002;29;21029;-75
2020/12/24 07:24:30;;;;;;;6.90;2.00;;;8.20;97.30;;;;;;4916827;29;20420;-73
2020/12/24 07:27:01;;;;;;;6.47;1.97;;;8.20;97.30;;;;;;4915333;29;20440;-73
2020/12/24 07:29:35;;;;;;;6.53;2.70;;;8.20;97.30;;;;;;4917166;29;20421;-72
2020/12/24 07:32:05;;;;;;;5.83;2.10;;;8.20;97.30;;;;;;4915367;29;20962;-72
2020/12/24 07:34:34;;;;;;;9.97;2.97;;;8.20;97.30;;;;;;4917725;29;20460;-72
2020/12/24 07:37:00;;;;;;;4.67;1.87;;;8.20;97.30;;;;;;4916746;29;20421;-72
2020/12/24 07:39:27;;;;;;;5.03;2.20;;;8.20;97.30;;;;;;4917552;29;20461;-73
2020/12/24 07:41:56;;;;;;;7.90;2.00;;;8.20;97.30;;;;;;4914446;29;20451;-72
2020/12/24 07:44:22;;;;;;;5.13;1.77;;;8.20;97.30;;;;;;4900480;29;20431;-72
2020/12/24 07:46:52;;;;;;;2.07;1.70;;;8.10;97.30;;;;;;4916556;29;20416;-73
2020/12/24 07:49:19;;;;;;;5.10;2.17;;;8.10;97.30;;;;;;4915654;29;20585;-72
2020/12/24 07:51:54;;;;;;;3.03;1.80;;;8.00;97.30;;;;;;4917452;29;20839;-72
2020/12/24 07:54:30;;;;;;;6.17;1.50;;;8.10;97.30;;;;;;4915189;29;20463;-72
2020/12/24 07:56:57;;;;;;;2.97;1.67;;;8.10;97.30;;;;;;4915464;29;20424;-75
2020/12/24 07:59:26;;;;;;;3.20;1.80;;;8.10;97.30;;;;;;4916547;29;20453;-73
2020/12/24 08:02:02;;;;;;;2.80;1.60;;;8.10;97.30;;;;;;4915122;29;20883;-74
2020/12/24 08:04:27;;;;;;;5.23;1.70;;;8.20;97.30;;;;;;4915509;29;20468;-72
2020/12/24 08:06:53;;;;;;;7.70;2.47;;;8.20;97.30;;;;;;4915668;29;20512;-72
2020/12/24 08:09:20;;;;;;;4.20;2.00;;;8.20;97.30;;;;;;4915695;29;20183;-71
2020/12/24 08:11:56;;;;;;;6.43;1.93;;;8.20;97.30;;;;;;4915664;29;20204;-72
2020/12/24 08:14:28;;;;;;;5.97;1.80;;;8.20;97.30;;;;;;4917633;29;20458;-72
2020/12/24 08:17:19;;;;;;;6.13;1.90;;;8.20;97.30;;;;;;4915787;29;20468;-73
2020/12/24 08:19:52;;;;;;;3.80;1.73;;;8.20;97.30;;;;;;4916236;29;20453;-72
2020/12/24 08:22:42;;;;;;;4.20;1.73;;;8.30;97.30;;;;;;4916002;29;20455;-73
2020/12/24 08:25:08;;;;;;;2.23;1.80;;;8.40;97.30;;;;;;4911025;29;20417;-73
2020/12/24 08:27:35;;;;;;;6.57;2.73;;;8.40;97.30;;;;;;4916082;29;20425;-74
2020/12/24 08:30:05;;;;;;;3.60;1.80;;;8.40;97.30;;;;;;4915927;29;20444;-73
2020/12/24 08:32:30;;;;;;;6.47;1.80;;;8.50;97.30;;;;;;4916062;29;20445;-73
2020/12/24 08:35:16;;;;;;;4.27;1.70;;;8.50;97.30;;;;;;4915859;29;20421;-73
2020/12/24 08:37:42;;;;;;;2.20;1.80;;;8.60;97.30;;;;;;4896928;29;20341;-71
2020/12/24 08:40:22;;;;;;;3.50;1.73;;;8.50;97.30;;;;;;4907757;29;20538;-71
2020/12/24 08:42:48;;;;;;;3.30;2.07;;;8.60;97.30;;;;;;4915615;29;20211;-71
2020/12/24 08:45:15;;;;;;;3.33;1.77;;;8.60;97.30;;;;;;4915652;29;20432;-72
2020/12/24 08:47:41;;;;;;;2.67;1.40;;;8.60;97.30;;;;;;4917148;29;20408;-71
2020/12/24 08:50:07;;;;;;;7.50;1.90;;;8.60;97.30;;;;;;4916760;29;20421;-71
2020/12/24 08:52:37;;;;;;;3.63;1.80;;;8.60;97.30;;;;;;4916787;29;20982;-71
2020/12/24 08:55:06;;;;;;;5.30;1.80;;;8.60;97.30;;;;;;4915340;29;20481;-71
2020/12/24 08:57:36;;;;;;;4.30;1.70;;;8.70;97.30;;;;;;4915578;29;20452;-71
2020/12/24 09:00:07;;;;;;;5.77;1.70;;;8.70;97.30;;;;;;4915177;29;20480;-72
2020/12/24 09:02:35;;;;;;;3.07;1.93;;;8.70;97.30;;;;;;4915476;29;20471;-71
2020/12/24 09:05:04;;;;;;;7.53;2.50;;;8.80;97.30;;;;;;4916499;29;20429;-72
2020/12/24 09:07:32;;;;;;;5.03;2.00;;;8.80;97.30;;;;;;4915587;29;20468;-72
2020/12/24 09:10:13;;;;;;;7.93;1.63;;;8.70;97.30;;;;;;4915611;29;20416;-72
2020/12/24 09:12:40;;;;;;;2.63;1.70;;;8.70;97.30;;;;;;4915971;29;20957;-71
2020/12/24 09:15:11;;;;;;;5.70;2.10;;;8.70;97.30;;;;;;4915909;29;20427;-72
2020/12/24 09:17:54;;;;;;;6.03;1.77;;;8.70;97.30;;;;;;4916657;29;20424;-72
2020/12/24 09:20:25;;;;;;;5.00;2.00;;;8.80;97.30;;;;;;4915626;29;20424;-71
2020/12/24 09:22:55;;;;;;;7.90;2.00;;;8.80;97.30;;;;;;4915321;29;20511;-72
2020/12/24 09:25:33;;;;;;;5.10;1.80;;;8.80;97.30;;;;;;4916433;29;20410;-72
2020/12/24 09:28:00;;;;;;;6.50;2.00;;;8.90;97.30;;;;;;4915113;29;20429;-71
2020/12/24 09:30:26;;;;;;;7.00;2.23;;;8.90;97.30;;;;;;4914904;29;20547;-72
2020/12/24 09:32:57;;;;;;;4.17;2.10;;;9.10;97.30;;;;;;4915215;29;20500;-72
2020/12/24 09:35:27;;;;;;;4.27;2.10;;;9.20;97.30;;;;;;4913932;29;20476;-73
2020/12/24 09:37:54;;;;;;;7.40;2.20;;;9.30;97.30;;;;;;4914891;29;20417;-72
2020/12/24 09:40:21;;;;;;;9.80;2.27;;;9.20;97.30;;;;;;4914912;29;20938;-72
2020/12/24 09:42:47;;;;;;;5.70;1.70;;;9.30;97.30;;;;;;4915960;29;20786;-71
2020/12/24 09:45:17;;;;;;;5.87;1.80;;;9.40;97.30;;;;;;4914930;29;21005;-71
2020/12/24 09:47:46;;;;;;;4.60;1.97;;;9.40;97.30;;;;;;4913253;29;20427;-71
2020/12/24 09:50:13;;;;;;;3.40;1.70;;;9.40;97.30;;;;;;4915107;29;20429;-71
2020/12/24 09:52:39;;;;;;;7.93;2.20;;;9.40;97.30;;;;;;4914683;29;21022;-71
2020/12/24 09:55:05;;;;;;;9.00;1.93;;;9.40;97.30;;;;;;4912237;29;20836;-71
2020/12/24 09:57:35;;;;;;;4.63;2.03;;;9.30;97.30;;;;;;4914215;29;20417;-71
2020/12/24 10:00:03;;;;;;;4.37;1.90;;;9.30;97.30;;;;;;4915934;29;20519;-71
2020/12/24 10:02:29;;;;;;;5.30;2.20;;;9.20;97.30;;;;;;4913751;29;21001;-71
2020/12/24 10:04:54;;;;;;;4.03;1.63;;;9.20;97.30;;;;;;4914111;29;20441;-73
2020/12/24 10:07:26;;;;;;;5.67;2.00;;;9.20;97.30;;;;;;4913661;29;20184;-70
2020/12/24 10:09:53;;;;;;;6.20;1.87;;;9.20;97.30;;;;;;4914939;29;20204;-72
2020/12/24 10:12:22;;;;;;;9.67;1.77;;;9.10;97.30;;;;;;4917238;29;20460;-71
2020/12/24 10:14:48;;;;;;;2.77;1.47;;;9.10;97.30;;;;;;4917108;29;20432;-71
2020/12/24 10:17:15;;;;;;;2.10;1.43;;;9.10;97.30;;;;;;4918381;29;20901;-71
2020/12/24 10:19:43;;;;;;;11.00;2.17;;;9.10;97.30;;;;;;4919211;29;20224;-71
2020/12/24 10:22:09;;;;;;;3.27;1.53;;;9.10;97.30;;;;;;4918887;29;20456;-71
2020/12/24 10:24:40;;;;;;;4.63;1.80;;;9.10;97.30;;;;;;4918838;29;20409;-71
2020/12/24 10:27:06;;;;;;;2.53;1.63;;;9.20;97.30;;;;;;4918499;29;20568;-71
2020/12/24 10:29:31;;;;;;;3.57;1.90;;;9.30;97.30;;;;;;4918277;29;20479;-70
2020/12/24 10:31:57;;;;;;;6.00;2.07;;;9.30;97.30;;;;;;4918130;29;20460;-72
2020/12/24 10:34:23;;;;;;;4.00;1.40;;;9.40;97.30;;;;;;4918051;29;20179;-70
2020/12/24 10:36:49;;;;;;;5.13;1.90;;;9.50;97.30;;;;;;4919190;29;20172;-71
2020/12/24 10:39:14;;;;;;;2.70;1.43;;;9.40;97.30;;;;;;4919085;29;20192;-70
2020/12/24 10:41:41;;;;;;;4.90;1.53;;;9.50;97.30;;;;;;4917637;29;20641;-70
2020/12/24 10:44:07;;;;;;;3.93;1.40;;;9.50;97.30;;;;;;4917758;29;20180;-70
2020/12/24 10:46:34;;;;;;;3.73;1.63;;;9.40;97.30;;;;;;4918743;29;20413;-71
2020/12/24 10:49:00;;;;;;;4.33;1.60;;;9.40;97.30;;;;;;4918023;29;20425;-70
2020/12/24 10:51:26;;;;;;;1.83;1.43;;;9.50;97.30;;;;;;4917775;29;20520;-70
2020/12/24 10:53:57;;;;;;;3.87;1.37;;;9.60;97.30;;;;;;4917671;29;20484;-70
2020/12/24 10:56:27;;;;;;;4.03;1.70;;;9.70;97.30;;;;;;4917465;29;20479;-70
2020/12/24 10:58:52;;;;;;;4.23;1.40;;;9.70;97.30;;;;;;4917312;29;20559;-70
2020/12/24 11:01:26;;;;;;;4.83;1.60;;;9.80;97.30;;;;;;4917388;29;20547;-71
2020/12/24 11:03:57;;;;;;;3.00;1.30;;;10.00;97.30;;;;;;4917423;29;20172;-71
2020/12/24 11:06:33;;;;;;;6.13;1.60;;;10.00;97.30;;;;;;4917485;29;20910;-69
2020/12/24 11:08:59;;;;;;;2.70;1.80;;;10.10;97.30;;;;;;4917040;29;20424;-70
2020/12/24 11:11:25;;;;;;;2.83;1.63;;;10.20;97.30;;;;;;4916889;29;20826;-70
2020/12/24 11:13:51;;;;;;;1.70;1.30;;;10.30;97.00;;;;;;4917314;29;20433;-70
2020/12/24 11:16:26;;;;;;;2.33;1.57;;;10.10;97.10;;;;;;4918629;29;20192;-71
2020/12/24 11:18:57;;;;;;;3.00;1.60;;;10.10;97.30;;;;;;4917206;29;20208;-71
2020/12/24 11:21:22;;;;;;;2.20;1.57;;;10.10;97.30;;;;;;4918561;29;20436;-70
2020/12/24 11:23:49;;;;;;;1.50;1.10;;;10.00;97.30;;;;;;4917050;29;20424;-71
2020/12/24 11:26:25;;;;;;;2.80;1.30;;;9.70;97.30;;;;;;4917077;29;20669;-70
2020/12/24 11:28:53;;;;;;;2.17;1.40;;;9.50;97.30;;;;;;4918358;29;20898;-70
2020/12/24 11:31:27;;;;;;;4.90;1.50;;;9.40;97.30;;;;;;4918221;29;20439;-70
2020/12/24 11:33:56;;;;;;;3.37;1.57;;;9.30;97.30;;;;;;4918017;29;20401;-70
2020/12/24 11:36:24;;;;;;;2.90;1.40;;;9.20;97.30;;;;;;4916955;29;20945;-71
2020/12/24 11:38:50;;;;;;;2.83;1.50;;;9.20;97.30;;;;;;4916876;29;20475;-70
2020/12/24 11:41:18;;;;;;;3.40;1.63;;;9.10;97.30;;;;;;4916739;29;20978;-70
2020/12/24 11:43:49;;;;;;;2.73;1.67;;;9.10;97.30;;;;;;4917902;29;20508;-70
2020/12/24 11:46:16;;;;;;;1.20;1.20;;;9.10;97.30;;;;;;4918164;29;20393;-70
2020/12/24 11:48:49;;;;;;;1.40;1.33;;;9.10;97.30;;;;;;4917803;29;20417;-70
2020/12/24 11:51:19;;;;;;;1.20;1.10;;;9.10;97.30;;;;;;4916518;29;20437;-69
2020/12/24 11:53:48;;;;;;;1.57;1.30;;;8.20;97.30;;;;;;4915950;29;20433;-69
2020/12/24 11:56:20;;;;;;;1.70;1.50;;;7.40;97.30;;;;;;4917855;29;20389;-69
2020/12/24 11:58:47;;;;;;;1.50;1.37;;;6.80;97.30;;;;;;4916366;29;20464;-70
2020/12/24 12:01:17;;;;;;;1.20;1.20;;;6.30;97.30;;;;;;4917718;29;20468;-71
2020/12/24 12:03:43;;;;;;;1.70;1.50;;;6.00;97.30;;;;;;4916058;29;20431;-69
2020/12/24 12:06:09;;;;;;;1.93;1.50;;;5.70;97.30;;;;;;4916387;29;20420;-69
2020/12/24 12:08:35;;;;;;;2.40;1.90;;;5.50;97.30;;;;;;4916501;29;20949;-70
2020/12/24 12:11:05;;;;;;;1.80;1.70;;;5.30;97.30;;;;;;4916455;29;20220;-70
2020/12/24 12:13:31;;;;;;;1.77;1.67;;;5.10;97.30;;;;;;4915985;29;20949;-70
2020/12/24 12:15:57;;;;;;;2.47;1.93;;;5.00;97.30;;;;;;4915759;29;20416;-70
2020/12/24 12:18:24;;;;;;;1.80;1.70;;;4.90;97.30;;;;;;4916231;29;20460;-71
2020/12/24 12:20:50;;;;;;;2.00;1.80;;;4.80;97.30;;;;;;4916159;29;20200;-70
2020/12/24 12:23:15;;;;;;;2.30;2.00;;;4.80;97.30;;;;;;4916166;29;20435;-71
2020/12/24 12:25:42;;;;;;;1.90;1.67;;;4.80;97.30;;;;;;4916211;29;20421;-71
2020/12/24 12:28:11;;;;;;;2.57;1.97;;;4.70;97.30;;;;;;4916245;29;20197;-71
2020/12/24 12:30:37;;;;;;;2.33;2.20;;;4.70;97.30;;;;;;4917377;29;20468;-75
2020/12/24 12:33:08;;;;;;;2.30;2.00;;;4.60;97.30;;;;;;4916929;29;20416;-71
2020/12/24 12:35:40;;;;;;;2.33;1.90;;;4.60;97.30;;;;;;4917838;29;20407;-71
2020/12/24 12:38:08;;;;;;;3.80;2.60;;;4.60;97.30;;;;;;4917741;29;20424;-71
2020/12/24 12:40:38;;;;;;;2.50;2.27;;;4.50;97.30;;;;;;4918541;29;20459;-72
2020/12/24 12:43:06;;;;;;;3.00;2.43;;;4.40;97.30;;;;;;4917152;29;20445;-72
2020/12/24 12:45:33;;;;;;;2.17;2.03;;;4.30;97.30;;;;;;4918154;29;20523;-73
2020/12/24 12:47:59;;;;;;;4.03;2.20;;;4.20;97.30;;;;;;4919294;29;20437;-72
2020/12/24 12:50:25;;;;;;;2.00;1.90;;;4.10;97.30;;;;;;4916417;29;20793;-71
2020/12/24 12:52:51;;;;;;;1.80;1.77;;;4.10;97.30;;;;;;4916122;29;20436;-71
2020/12/24 12:55:17;;;;;;;1.90;1.83;;;4.20;97.30;;;;;;4916432;29;20444;-72
2020/12/24 12:57:43;;;;;;;2.87;2.30;;;4.20;97.30;;;;;;4916768;29;20436;-72
2020/12/24 13:00:09;;;;;;;2.30;2.00;;;4.10;97.30;;;;;;4915776;29;20839;-71
2020/12/24 13:02:36;;;;;;;2.47;2.30;;;4.20;97.30;;;;;;4916653;29;20708;-71
2020/12/24 13:05:05;;;;;;;4.30;2.10;;;4.10;97.30;;;;;;4916449;29;20804;-72
2020/12/24 13:07:31;;;;;;;3.10;2.90;;;4.10;97.30;;;;;;4915804;29;20435;-72
2020/12/24 13:09:57;;;;;;;2.43;2.23;;;4.10;97.30;;;;;;4915640;29;20437;-72
2020/12/24 13:12:22;;;;;;;3.53;2.50;;;4.10;97.30;;;;;;4915588;29;20200;-73
2020/12/24 13:14:48;;;;;;;13.07;5.80;;;4.10;97.30;;;;;;4917318;29;20218;-73
2020/12/24 13:17:14;;;;;;;12.33;7.00;;;4.10;97.30;;;;;;4915858;29;20187;-73
2020/12/24 13:19:40;;;;;;;5.03;3.00;;;4.00;97.30;;;;;;4915587;29;20214;-72
2020/12/24 13:22:05;;;;;;;4.13;3.20;;;4.00;97.30;;;;;;4915663;29;20631;-73
2020/12/24 13:24:31;;;;;;;5.67;4.10;;;4.10;97.30;;;;;;4915522;29;20185;-72
2020/12/24 13:26:57;;;;;;;7.53;4.83;;;4.00;97.30;;;;;;4915668;29;20188;-72
2020/12/24 13:29:23;;;;;;;5.10;3.23;;;4.00;97.30;;;;;;4916973;29;20169;-72
2020/12/24 13:31:49;;;;;;;26.63;12.03;;;4.00;97.30;;;;;;4915586;29;20561;-72
2020/12/24 13:34:17;;;;;;;10.83;6.17;;;4.00;97.30;;;;;;4915600;29;20429;-72
2020/12/24 13:36:48;;;;;;;5.70;3.90;;;4.10;97.30;;;;;;4915694;29;20232;-71
2020/12/24 13:39:14;;;;;;;56.50;27.80;;;4.00;97.30;;;;;;4915501;29;20520;-71
2020/12/24 13:41:40;;;;;;;9.93;6.33;;;4.10;97.30;;;;;;4915575;29;20472;-71
2020/12/24 13:44:06;;;;;;;5.10;3.43;;;4.10;97.30;;;;;;4915405;29;20644;-71
2020/12/24 13:46:31;;;;;;;3.50;3.10;;;4.10;97.30;;;;;;4916979;29;20504;-71
2020/12/24 13:48:57;;;;;;;4.83;3.80;;;4.00;97.30;;;;;;4918618;29;20181;-72
2020/12/24 13:51:23;;;;;;;7.10;4.27;;;4.00;97.30;;;;;;4919028;29;20762;-72
2020/12/24 13:53:49;;;;;;;4.50;3.13;;;4.10;97.30;;;;;;4918917;29;20177;-72
2020/12/24 13:56:14;;;;;;;2.93;2.47;;;4.10;97.30;;;;;;4918937;29;20181;-71
2020/12/24 13:58:41;;;;;;;3.13;2.50;;;4.10;97.30;;;;;;4918681;29;20200;-71
2020/12/24 14:01:10;;;;;;;3.03;2.80;;;4.10;97.30;;;;;;4920108;29;20224;-71
2020/12/24 14:03:36;;;;;;;3.00;2.27;;;4.10;97.30;;;;;;4919630;29;20413;-72
2020/12/24 14:06:02;;;;;;;2.50;2.10;;;4.10;97.30;;;;;;4918575;29;20435;-72
2020/12/24 14:08:28;;;;;;;3.10;2.53;;;4.10;97.30;;;;;;4918859;29;20412;-71
2020/12/24 14:10:54;;;;;;;2.60;2.40;;;4.10;97.30;;;;;;4918656;29;20196;-71
2020/12/24 14:13:20;;;;;;;3.80;2.87;;;4.10;97.30;;;;;;4918535;29;20787;-72
2020/12/24 14:15:45;;;;;;;2.90;2.60;;;4.10;97.30;;;;;;4919850;29;20545;-71
2020/12/24 14:18:11;;;;;;;4.00;3.23;;;4.10;97.30;;;;;;4919798;29;20177;-72
2020/12/24 14:20:39;;;;;;;4.43;3.20;;;4.10;97.30;;;;;;4918404;29;20279;-72
2020/12/24 14:23:09;;;;;;;4.43;3.13;;;4.10;97.30;;;;;;4918198;29;20558;-73
2020/12/24 14:25:39;;;;;;;4.00;2.67;;;4.10;97.30;;;;;;4919770;29;20393;-74
2020/12/24 14:28:05;;;;;;;6.03;3.93;;;4.10;97.30;;;;;;4918566;29;20469;-73
2020/12/24 14:30:30;;;;;;;7.20;4.60;;;4.20;97.30;;;;;;4918078;29;20865;-73
2020/12/24 14:32:56;;;;;;;4.97;3.13;;;4.20;97.30;;;;;;4919142;29;20280;-73
2020/12/24 14:35:22;;;;;;;3.63;3.13;;;4.20;97.30;;;;;;4918175;29;20181;-73
2020/12/24 14:37:47;;;;;;;2.93;2.73;;;4.20;97.30;;;;;;4918170;29;20228;-73
2020/12/24 14:40:13;;;;;;;3.20;2.40;;;4.20;97.30;;;;;;4918207;29;20544;-73
2020/12/24 14:42:39;;;;;;;2.93;2.53;;;4.20;97.30;;;;;;4918162;29;20188;-73
2020/12/24 14:45:05;;;;;;;3.07;2.60;;;4.20;97.30;;;;;;4917947;29;20269;-73
2020/12/24 14:47:30;;;;;;;2.77;2.57;;;4.20;97.30;;;;;;4918089;29;20503;-73
2020/12/24 14:49:56;;;;;;;2.93;2.43;;;4.20;97.30;;;;;;4918000;29;20195;-73
2020/12/24 14:52:25;;;;;;;3.60;2.33;;;4.20;97.30;;;;;;4918031;29;20204;-72
2020/12/24 14:54:51;;;;;;;5.13;3.30;;;4.20;97.30;;;;;;4917761;29;20710;-72
2020/12/24 14:57:16;;;;;;;3.57;2.87;;;4.20;97.30;;;;;;4917810;29;20428;-72
2020/12/24 14:59:43;;;;;;;4.20;3.40;;;4.20;97.30;;;;;;4917285;29;20220;-72
2020/12/24 15:02:09;;;;;;;45.43;15.67;;;4.20;97.30;;;;;;4917313;29;20216;-72
2020/12/24 15:04:35;;;;;;;5.07;3.60;;;4.20;97.30;;;;;;4917461;29;20425;-72
2020/12/24 15:07:01;;;;;;;5.40;3.77;;;4.30;97.30;;;;;;4917363;29;20432;-72
2020/12/24 15:09:33;;;;;;;5.93;4.10;;;4.30;97.30;;;;;;4916662;29;20196;-72
2020/12/24 15:12:00;;;;;;;15.40;8.57;;;4.30;97.30;;;;;;4929622;29;20210;-73
2020/12/24 15:14:26;;;;;;;10.50;6.53;;;4.40;97.30;;;;;;4924922;29;20706;-72
2020/12/24 15:16:56;;;;;;;17.03;10.47;;;4.40;97.30;;;;;;4924914;29;20902;-72
2020/12/24 15:19:22;;;;;;;15.63;8.80;;;4.40;97.30;;;;;;4919770;29;20463;-72
2020/12/24 15:21:48;;;;;;;25.17;12.10;;;4.50;97.30;;;;;;4936868;29;20452;-73
2020/12/24 15:24:14;;;;;;;65.47;26.30;;;4.50;97.30;;;;;;4936314;29;20267;-73
2020/12/24 15:26:40;;;;;;;19.87;9.90;;;4.50;97.30;;;;;;4935702;29;20515;-73
2020/12/24 15:29:06;;;;;;;5.20;3.27;;;4.60;97.30;;;;;;4937434;29;20617;-72
2020/12/24 15:31:33;;;;;;;7.17;4.73;;;4.60;97.30;;;;;;4935868;29;20210;-73
2020/12/24 15:33:59;;;;;;;8.80;5.20;;;4.60;97.30;;;;;;4935540;29;20482;-72
2020/12/24 15:36:25;;;;;;;16.80;7.80;;;4.60;97.30;;;;;;4919827;29;20905;-72
2020/12/24 15:38:51;;;;;;;31.47;13.47;;;4.60;97.30;;;;;;4916344;29;20539;-72
2020/12/24 15:41:16;;;;;;;21.50;9.23;;;4.60;97.30;;;;;;4916387;29;20231;-74
2020/12/24 15:43:42;;;;;;;7.10;4.07;;;4.60;97.30;;;;;;4916440;29;20220;-72
2020/12/24 15:46:08;;;;;;;36.33;16.23;;;4.70;97.30;;;;;;4916658;29;20200;-72
2020/12/24 15:48:34;;;;;;;33.90;15.93;;;4.70;97.30;;;;;;4917055;29;20534;-72
2020/12/24 15:51:03;;;;;;;6.53;4.00;;;4.70;97.30;;;;;;4916709;29;20220;-73
2020/12/24 15:53:32;;;;;;;19.73;10.00;;;4.70;97.30;;;;;;4916241;29;20421;-73
2020/12/24 15:55:58;;;;;;;23.13;11.10;;;4.70;97.30;;;;;;4915999;29;20444;-72
2020/12/24 15:58:24;;;;;;;48.37;21.03;;;4.70;97.30;;;;;;4916302;29;20808;-72
2020/12/24 16:00:50;;;;;;;5.00;4.00;;;4.70;97.30;;;;;;4915817;29;20853;-73
2020/12/24 16:03:16;;;;;;;13.50;7.20;;;4.70;97.30;;;;;;4915760;29;20429;-72
2020/12/24 16:05:42;;;;;;;5.33;3.60;;;4.60;97.30;;;;;;4917575;29;20417;-72
2020/12/24 16:08:07;;;;;;;5.73;4.50;;;4.70;97.30;;;;;;4917600;29;20169;-72
2020/12/24 16:10:33;;;;;;;4.87;3.90;;;4.70;97.30;;;;;;4915853;29;20584;-73
2020/12/24 16:12:59;;;;;;;5.63;3.60;;;4.70;97.30;;;;;;4916312;29;20188;-73
2020/12/24 16:15:24;;;;;;;4.47;3.73;;;4.70;97.30;;;;;;4916399;29;20177;-73
2020/12/24 16:17:50;;;;;;;4.70;3.57;;;4.70;97.30;;;;;;4917416;29;20188;-73
2020/12/24 16:20:16;;;;;;;4.70;3.47;;;4.70;97.30;;;;;;4916051;29;20203;-72
2020/12/24 16:22:44;;;;;;;5.07;3.77;;;4.70;97.30;;;;;;4916228;29;20643;-73
2020/12/24 16:25:10;;;;;;;4.30;3.63;;;4.70;97.30;;;;;;4915979;29;20243;-73
2020/12/24 16:27:36;;;;;;;3.70;3.20;;;4.70;97.30;;;;;;4916164;29;20938;-73
2020/12/24 16:30:02;;;;;;;5.17;3.70;;;4.70;97.30;;;;;;4916126;29;20185;-72
2020/12/24 16:32:27;;;;;;;5.00;3.87;;;4.70;97.30;;;;;;4915987;29;20204;-73
2020/12/24 16:34:53;;;;;;;3.90;3.40;;;4.70;97.30;;;;;;4915780;29;20990;-72
2020/12/24 16:37:22;;;;;;;6.07;3.70;;;4.70;97.30;;;;;;4915473;29;20678;-73
2020/12/24 16:39:48;;;;;;;4.10;3.03;;;4.60;97.30;;;;;;4915745;29;20215;-73
2020/12/24 16:42:14;;;;;;;4.43;3.90;;;4.60;97.30;;;;;;4915832;29;20523;-73
2020/12/24 16:44:40;;;;;;;5.80;3.37;;;4.60;97.30;;;;;;4916909;29;20499;-73
2020/12/24 16:47:06;;;;;;;4.70;3.63;;;4.60;97.30;;;;;;4915795;29;20176;-73
2020/12/24 16:49:32;;;;;;;5.90;4.10;;;4.60;97.30;;;;;;4915865;29;20207;-73
2020/12/24 16:51:58;;;;;;;6.70;4.17;;;4.60;97.30;;;;;;4915627;29;20444;-73
2020/12/24 16:54:24;;;;;;;6.63;3.87;;;4.60;97.30;;;;;;4915458;29;20444;-73
2020/12/24 16:56:51;;;;;;;5.93;3.90;;;4.70;97.30;;;;;;4915651;29;20485;-73
2020/12/24 16:59:17;;;;;;;6.30;4.60;;;4.70;97.30;;;;;;4916805;29;20487;-73
2020/12/24 17:01:43;;;;;;;7.13;3.40;;;4.70;97.30;;;;;;4915543;29;20800;-74
2020/12/24 17:04:09;;;;;;;6.03;4.10;;;4.70;97.30;;;;;;4915503;29;20500;-74
2020/12/24 17:06:38;;;;;;;4.43;3.90;;;4.70;97.30;;;;;;4915621;29;20863;-73
2020/12/24 17:09:05;;;;;;;5.40;3.60;;;4.70;97.30;;;;;;4916941;29;20513;-73
2020/12/24 17:11:30;;;;;;;6.80;4.27;;;4.70;97.30;;;;;;4915456;29;20445;-73
2020/12/24 17:13:56;;;;;;;8.40;4.70;;;4.70;97.30;;;;;;4916710;29;20787;-73
2020/12/24 17:16:22;;;;;;;7.40;4.70;;;4.70;97.30;;;;;;4916872;29;20177;-73
2020/12/24 17:18:48;;;;;;;6.50;4.57;;;4.60;97.30;;;;;;4915446;29;20624;-73
2020/12/24 17:21:21;;;;;;;9.00;5.30;;;4.60;97.30;;;;;;4919297;29;20440;-73
2020/12/24 17:23:47;;;;;;;7.80;4.67;;;4.50;97.30;;;;;;4919394;29;20420;-73
2020/12/24 17:26:18;;;;;;;10.17;5.73;;;4.50;97.30;;;;;;4919442;29;20417;-73
2020/12/24 17:28:43;;;;;;;9.27;5.80;;;4.50;97.30;;;;;;4920189;29;20231;-71
2020/12/24 17:31:09;;;;;;;8.80;5.63;;;4.50;97.30;;;;;;4919223;29;20444;-72
2020/12/24 17:33:35;;;;;;;9.00;5.50;;;4.50;97.30;;;;;;4918758;29;20193;-73
2020/12/24 17:36:00;;;;;;;9.23;4.73;;;4.40;97.30;;;;;;4919270;29;20200;-72
2020/12/24 17:38:26;;;;;;;13.83;11.23;;;4.40;97.30;;;;;;4918891;29;20188;-72
2020/12/24 17:40:52;;;;;;;9.30;5.37;;;4.50;97.30;;;;;;4918991;29;20546;-73
2020/12/24 17:43:18;;;;;;;9.37;4.93;;;4.50;97.30;;;;;;4918898;29;20179;-72
2020/12/24 17:45:43;;;;;;;9.53;5.20;;;4.50;97.30;;;;;;4919166;29;20180;-72
2020/12/24 17:48:09;;;;;;;13.70;5.13;;;4.50;97.30;;;;;;4925190;29;20434;-72
2020/12/24 17:50:35;;;;;;;8.77;4.87;;;4.60;97.30;;;;;;4925472;29;20202;-73
2020/12/24 17:53:01;;;;;;;9.93;5.60;;;4.60;97.30;;;;;;4938968;29;20524;-72
2020/12/24 17:55:27;;;;;;;7.30;4.87;;;4.60;97.30;;;;;;4938811;29;20199;-72
2020/12/24 17:57:53;;;;;;;7.50;5.03;;;4.60;97.30;;;;;;4925756;29;20181;-72
2020/12/24 18:00:18;;;;;;;8.97;5.23;;;4.60;97.30;;;;;;4918586;29;20604;-72
2020/12/24 18:02:44;;;;;;;6.60;4.43;;;4.60;97.30;;;;;;4907123;29;20441;-72
2020/12/24 18:05:10;;;;;;;9.60;5.30;;;5.10;97.30;;;;;;4920192;29;20188;-73
2020/12/24 18:07:35;;;;;;;10.73;5.00;;;5.10;97.30;;;;;;4918840;29;20600;-72
2020/12/24 18:10:01;;;;;;;9.50;6.00;;;5.00;97.30;;;;;;4918639;29;20666;-73
2020/12/24 18:12:27;;;;;;;7.90;4.90;;;5.00;97.30;;;;;;4917909;29;20259;-75
2020/12/24 18:14:53;;;;;;;11.63;7.00;;;4.90;97.30;;;;;;4902631;29;20212;-73
2020/12/24 18:17:19;;;;;;;7.63;5.20;;;4.80;97.30;;;;;;4918269;29;20423;-75
2020/12/24 18:19:45;;;;;;;11.17;8.30;;;4.70;97.30;;;;;;4919289;29;20460;-72
2020/12/24 18:22:11;;;;;;;11.50;6.97;;;5.10;97.30;;;;;;4918133;29;20480;-71
2020/12/24 18:24:37;;;;;;;18.17;11.47;;;5.10;97.30;;;;;;4917760;29;20456;-71
2020/12/24 18:27:03;;;;;;;10.27;6.27;;;5.30;97.30;;;;;;4916414;29;20443;-72
2020/12/24 18:29:30;;;;;;;8.13;4.80;;;5.30;97.30;;;;;;4918295;29;20420;-72
2020/12/24 18:31:55;;;;;;;6.77;4.80;;;5.20;97.30;;;;;;4916421;29;20667;-73
2020/12/24 18:34:21;;;;;;;9.57;6.53;;;5.10;97.30;;;;;;4917348;29;20425;-72
2020/12/24 18:36:47;;;;;;;7.03;5.30;;;5.10;97.30;;;;;;4917682;29;20196;-72
2020/12/24 18:39:14;;;;;;;7.70;4.77;;;5.00;97.30;;;;;;4917656;29;20271;-71
2020/12/24 18:41:40;;;;;;;14.97;8.40;;;4.90;97.30;;;;;;4918899;29;20204;-73
2020/12/24 18:44:05;;;;;;;11.30;6.97;;;4.90;97.30;;;;;;4919033;29;20417;-72
2020/12/24 18:46:31;;;;;;;9.93;6.50;;;4.80;97.30;;;;;;4917621;29;20180;-72
2020/12/24 18:48:57;;;;;;;10.40;6.27;;;4.80;97.30;;;;;;4917591;29;20316;-73
2020/12/24 18:51:23;;;;;;;8.47;4.87;;;4.80;97.30;;;;;;4917669;29;20954;-72
2020/12/24 18:53:48;;;;;;;13.33;7.70;;;4.70;97.30;;;;;;4917462;29;20251;-72
2020/12/24 18:56:14;;;;;;;8.90;5.37;;;4.70;97.30;;;;;;4918571;29;20600;-73
2020/12/24 18:58:40;;;;;;;9.17;5.30;;;4.60;97.30;;;;;;4917383;29;20616;-73
2020/12/24 19:01:10;;;;;;;8.07;4.83;;;4.60;97.30;;;;;;4918960;29;20452;-73